Time;durP1;ratioP1;P1;durP2;ratioP2;P2;SDS_P1;SDS_P2;PMS_P1;PMS_P2;Temp;Humidity;BMP_temperature;BMP_pressure;BME280_temperature;BME280_humidity;BME280_pressure;Samples;Min_cycle;Max_cycle;Signal;HPM_P1;HPM_P2
2021/08/21 00:01:05;;;;;;;6.70;3.95;;;;;;;;;;4981680;28;20439;-85
2021/08/21 00:03:32;;;;;;;6.05;4.22;;;;;;;;;;4983705;28;20417;-86
2021/08/21 00:05:59;;;;;;;5.97;4.40;;;;;;;;;;4984052;28;20408;-85
2021/08/21 00:08:26;;;;;;;5.07;4.20;;;;;;;;;;4983885;28;20404;-85
2021/08/21 00:10:52;;;;;;;5.25;4.00;;;;;;;;;;4983469;28;20881;-86
2021/08/21 00:13:19;;;;;;;6.32;4.20;;;;;;;;;;4984245;28;20412;-86
2021/08/21 00:15:48;;;;;;;5.05;4.00;;;;;;;;;;4983396;28;20416;-85
2021/08/21 00:18:15;;;;;;;6.87;4.30;;;;;;;;;;4988166;28;20406;-86
2021/08/21 00:20:42;;;;;;;6.43;3.97;;;;;;;;;;4988801;28;20411;-86
2021/08/21 00:23:08;;;;;;;5.80;4.03;;;;;;;;;;4988530;28;20481;-86
2021/08/21 00:25:35;;;;;;;6.18;4.00;;;;;;;;;;4989106;28;20409;-86
2021/08/21 00:28:02;;;;;;;5.65;3.95;;;;;;;;;;4988737;28;20412;-85
2021/08/21 00:30:29;;;;;;;7.22;4.30;;;;;;;;;;4988630;28;20423;-86
2021/08/21 00:32:57;;;;;;;8.38;4.07;;;;;;;;;;4989034;28;20416;-85
2021/08/21 00:35:24;;;;;;;5.70;3.90;;;;;;;;;;4989275;28;20416;-86
2021/08/21 00:37:51;;;;;;;7.32;4.30;;;;;;;;;;4983373;28;20477;-86
2021/08/21 00:40:18;;;;;;;6.03;4.30;;;;;;;;;;4982823;28;20516;-85
2021/08/21 00:42:45;;;;;;;5.15;4.20;;;;;;;;;;4983402;28;20413;-86
2021/08/21 00:45:13;;;;;;;6.65;4.30;;;;;;;;;;4982320;28;20415;-86
2021/08/21 00:47:39;;;;;;;5.05;4.38;;;;;;;;;;4983457;28;20931;-86
2021/08/21 00:50:09;;;;;;;7.23;4.80;;;;;;;;;;4982773;28;20499;-86
2021/08/21 00:52:36;;;;;;;7.80;4.63;;;;;;;;;;4982619;28;20408;-85
2021/08/21 00:55:04;;;;;;;5.70;4.70;;;;;;;;;;4983112;28;20412;-86
2021/08/21 00:57:31;;;;;;;5.15;4.35;;;;;;;;;;4983524;28;20424;-86
2021/08/21 00:59:59;;;;;;;6.93;4.70;;;;;;;;;;4982057;28;20436;-86
2021/08/21 01:02:25;;;;;;;5.82;4.30;;;;;;;;;;4982993;28;20428;-86
2021/08/21 01:04:54;;;;;;;7.82;4.63;;;;;;;;;;4985627;28;20431;-84
2021/08/21 01:07:26;;;;;;;6.78;4.25;;;;;;;;;;4988095;28;20460;-86
2021/08/21 01:09:53;;;;;;;5.55;4.20;;;;;;;;;;4984363;28;20877;-86
2021/08/21 01:12:21;;;;;;;5.13;4.25;;;;;;;;;;4983482;28;20651;-85
2021/08/21 01:14:50;;;;;;;6.13;4.53;;;;;;;;;;4984847;28;20412;-86
2021/08/21 01:17:18;;;;;;;6.67;4.13;;;;;;;;;;4988849;28;20405;-86
2021/08/21 01:19:46;;;;;;;6.53;4.32;;;;;;;;;;4981314;28;20432;-86
2021/08/21 01:22:16;;;;;;;6.45;4.50;;;;;;;;;;4987509;28;21328;-86
2021/08/21 01:24:45;;;;;;;5.10;4.07;;;;;;;;;;4989191;28;20407;-86
2021/08/21 01:27:17;;;;;;;6.68;4.50;;;;;;;;;;4988999;28;20422;-86
2021/08/21 01:29:44;;;;;;;7.25;4.80;;;;;;;;;;4980834;28;20416;-86
2021/08/21 01:32:11;;;;;;;7.05;5.07;;;;;;;;;;4982804;28;20401;-86
2021/08/21 01:34:38;;;;;;;6.00;4.78;;;;;;;;;;4982820;28;20872;-86
2021/08/21 01:37:05;;;;;;;7.78;4.88;;;;;;;;;;4981891;28;20420;-86
2021/08/21 01:39:32;;;;;;;6.57;4.50;;;;;;;;;;4981627;28;20801;-85
2021/08/21 01:41:59;;;;;;;7.78;4.32;;;;;;;;;;4982727;28;20817;-85
2021/08/21 01:44:27;;;;;;;5.10;4.27;;;;;;;;;;4982135;28;20423;-85
2021/08/21 01:46:54;;;;;;;6.50;4.47;;;;;;;;;;4985792;28;20416;-85
2021/08/21 01:49:24;;;;;;;8.02;4.38;;;;;;;;;;4988193;28;21233;-87
2021/08/21 01:51:52;;;;;;;7.40;4.95;;;;;;;;;;4988175;28;20446;-86
2021/08/21 01:54:20;;;;;;;6.60;4.80;;;;;;;;;;4989002;28;20486;-86
2021/08/21 01:56:49;;;;;;;6.28;4.65;;;;;;;;;;4988541;28;20902;-86
2021/08/21 01:59:19;;;;;;;6.95;4.60;;;;;;;;;;4980885;28;20428;-86
2021/08/21 02:01:48;;;;;;;5.93;4.45;;;;;;;;;;4985818;28;20403;-84
2021/08/21 02:04:14;;;;;;;6.43;4.45;;;;;;;;;;4986762;28;20418;-86
2021/08/21 02:06:42;;;;;;;6.38;4.97;;;;;;;;;;4991132;28;20914;-86
2021/08/21 02:09:09;;;;;;;5.87;4.87;;;;;;;;;;4990308;28;20418;-86
2021/08/21 02:11:36;;;;;;;6.32;5.13;;;;;;;;;;4992628;28;20407;-86
2021/08/21 02:14:03;;;;;;;8.00;5.80;;;;;;;;;;4992171;28;20412;-86
2021/08/21 02:16:29;;;;;;;6.97;5.60;;;;;;;;;;4992901;28;20407;-86
2021/08/21 02:18:58;;;;;;;7.82;5.70;;;;;;;;;;4991507;28;20866;-87
2021/08/21 02:21:25;;;;;;;7.25;5.68;;;;;;;;;;4993205;28;20461;-85
2021/08/21 02:23:52;;;;;;;7.10;6.10;;;;;;;;;;4991384;28;20412;-86
2021/08/21 02:26:19;;;;;;;7.60;5.72;;;;;;;;;;4994302;28;20407;-85
2021/08/21 02:28:46;;;;;;;8.15;5.18;;;;;;;;;;4990046;28;20802;-86
2021/08/21 02:31:12;;;;;;;8.07;5.60;;;;;;;;;;4994078;28;20411;-86
2021/08/21 02:33:39;;;;;;;7.43;5.30;;;;;;;;;;4991805;28;20792;-86
2021/08/21 02:36:08;;;;;;;8.55;5.80;;;;;;;;;;4992384;28;20899;-86
2021/08/21 02:38:35;;;;;;;6.82;5.45;;;;;;;;;;4992157;28;20406;-86
2021/08/21 02:41:01;;;;;;;8.55;5.60;;;;;;;;;;4992075;28;20437;-86
2021/08/21 02:43:28;;;;;;;6.70;5.70;;;;;;;;;;4992205;28;20886;-85
2021/08/21 02:45:55;;;;;;;9.35;6.13;;;;;;;;;;4991012;28;20409;-85
2021/08/21 02:48:22;;;;;;;7.43;5.40;;;;;;;;;;4993997;28;20464;-86
2021/08/21 02:50:49;;;;;;;7.53;5.15;;;;;;;;;;4992625;28;20420;-86
2021/08/21 02:53:17;;;;;;;7.47;5.80;;;;;;;;;;4997828;28;20810;-86
2021/08/21 02:55:44;;;;;;;8.73;6.22;;;;;;;;;;4989795;28;20423;-85
2021/08/21 02:58:11;;;;;;;8.02;6.07;;;;;;;;;;4993861;28;20467;-86
2021/08/21 03:00:39;;;;;;;7.75;5.95;;;;;;;;;;4997044;28;20910;-86
2021/08/21 03:03:06;;;;;;;9.00;6.00;;;;;;;;;;4995109;28;20421;-86
2021/08/21 03:05:32;;;;;;;8.65;5.95;;;;;;;;;;4998182;28;20411;-87
2021/08/21 03:07:59;;;;;;;7.88;6.20;;;;;;;;;;4995246;28;20405;-86
2021/08/21 03:10:27;;;;;;;9.38;6.40;;;;;;;;;;4996249;28;20767;-86
2021/08/21 03:12:54;;;;;;;9.07;6.28;;;;;;;;;;4993893;28;20778;-86
2021/08/21 03:15:21;;;;;;;7.72;6.53;;;;;;;;;;4997154;28;20438;-85
2021/08/21 03:17:48;;;;;;;7.03;6.13;;;;;;;;;;4994236;28;20409;-86
2021/08/21 03:20:15;;;;;;;8.55;6.47;;;;;;;;;;4989157;28;20428;-86
2021/08/21 03:22:42;;;;;;;8.77;6.63;;;;;;;;;;4997263;28;20419;-86
2021/08/21 03:25:09;;;;;;;9.23;6.97;;;;;;;;;;4994010;28;20425;-86
2021/08/21 03:27:37;;;;;;;8.57;7.37;;;;;;;;;;4995566;28;20509;-86
2021/08/21 03:30:05;;;;;;;9.35;6.68;;;;;;;;;;4994475;28;20418;-86
2021/08/21 03:32:32;;;;;;;8.13;6.67;;;;;;;;;;4995592;28;20420;-85
2021/08/21 03:34:59;;;;;;;8.73;7.28;;;;;;;;;;4994909;28;20407;-86
2021/08/21 03:37:26;;;;;;;10.68;7.20;;;;;;;;;;4994864;28;20413;-86
2021/08/21 03:39:52;;;;;;;9.93;7.40;;;;;;;;;;4995862;28;20434;-86
2021/08/21 03:42:19;;;;;;;8.38;7.30;;;;;;;;;;4992799;28;20408;-86
2021/08/21 03:44:49;;;;;;;10.52;7.30;;;;;;;;;;4997088;28;20399;-86
2021/08/21 03:47:15;;;;;;;9.57;7.22;;;;;;;;;;4989528;28;20413;-86
2021/08/21 03:49:42;;;;;;;9.70;6.82;;;;;;;;;;4995777;28;20418;-86
2021/08/21 03:52:09;;;;;;;8.20;6.90;;;;;;;;;;4993619;28;20425;-86
2021/08/21 03:54:36;;;;;;;9.90;7.38;;;;;;;;;;4995587;28;20774;-86
2021/08/21 03:57:03;;;;;;;10.27;7.10;;;;;;;;;;4993247;28;20418;-86
2021/08/21 03:59:30;;;;;;;9.05;6.70;;;;;;;;;;4994995;28;20837;-86
2021/08/21 04:01:59;;;;;;;8.93;6.47;;;;;;;;;;4994028;28;20426;-85
2021/08/21 04:04:26;;;;;;;8.15;6.40;;;;;;;;;;4988639;28;20437;-86
2021/08/21 04:06:53;;;;;;;11.40;7.10;;;;;;;;;;4990349;28;20409;-85
2021/08/21 04:09:20;;;;;;;12.30;6.43;;;;;;;;;;4985392;28;20415;-85
2021/08/21 04:11:47;;;;;;;11.80;6.90;;;;;;;;;;4983900;28;20415;-85
2021/08/21 04:14:14;;;;;;;10.85;6.57;;;;;;;;;;4981720;28;20456;-86
2021/08/21 04:16:40;;;;;;;8.32;6.15;;;;;;;;;;4984321;28;20726;-85
2021/08/21 04:19:09;;;;;;;8.48;6.30;;;;;;;;;;4983175;28;20409;-85
2021/08/21 04:21:39;;;;;;;8.18;5.88;;;;;;;;;;4987510;28;20430;-86
2021/08/21 04:24:07;;;;;;;8.30;6.20;;;;;;;;;;4993669;28;20487;-84
2021/08/21 04:26:33;;;;;;;6.67;5.80;;;;;;;;;;4993095;28;20409;-86
2021/08/21 04:29:00;;;;;;;10.53;6.23;;;;;;;;;;4995118;28;20416;-86
2021/08/21 04:31:27;;;;;;;7.93;5.78;;;;;;;;;;4995432;28;20411;-85
2021/08/21 04:33:54;;;;;;;7.40;5.60;;;;;;;;;;4994406;28;20407;-86
2021/08/21 04:36:22;;;;;;;6.68;5.25;;;;;;;;;;4995465;28;20414;-86
2021/08/21 04:38:49;;;;;;;7.03;6.18;;;;;;;;;;4994850;28;20411;-85
2021/08/21 04:41:16;;;;;;;15.45;9.30;;;;;;;;;;4995109;28;20431;-86
2021/08/21 04:43:43;;;;;;;7.68;5.78;;;;;;;;;;4995962;28;20898;-86
2021/08/21 04:46:10;;;;;;;8.18;5.43;;;;;;;;;;4996091;28;20891;-87
2021/08/21 04:48:37;;;;;;;7.07;5.05;;;;;;;;;;4995136;28;20411;-86
2021/08/21 04:51:04;;;;;;;6.63;5.00;;;;;;;;;;4993806;28;20818;-86
2021/08/21 04:53:32;;;;;;;10.15;5.72;;;;;;;;;;4995732;28;20800;-86
2021/08/21 04:55:59;;;;;;;9.70;5.55;;;;;;;;;;4994639;28;20416;-86
2021/08/21 04:58:26;;;;;;;7.43;5.30;;;;;;;;;;4996027;28;20422;-85
2021/08/21 05:00:52;;;;;;;7.65;5.55;;;;;;;;;;4994538;28;20422;-86
2021/08/21 05:03:19;;;;;;;9.63;5.70;;;;;;;;;;4995138;28;20426;-87
2021/08/21 05:05:47;;;;;;;7.40;5.40;;;;;;;;;;4995002;28;20415;-86
2021/08/21 05:08:15;;;;;;;9.23;5.35;;;;;;;;;;4985106;28;20412;-87
2021/08/21 05:10:43;;;;;;;5.55;4.80;;;;;;;;;;4982103;28;20522;-85
2021/08/21 05:13:10;;;;;;;5.07;4.50;;;;;;;;;;4981935;28;20409;-86
2021/08/21 05:15:39;;;;;;;8.55;5.25;;;;;;;;;;4982954;28;20766;-85
2021/08/21 05:18:07;;;;;;;7.13;5.28;;;;;;;;;;4993443;28;20439;-85
2021/08/21 05:20:43;;;;;;;6.05;4.63;;;;;;;;;;4993734;28;20448;-86
2021/08/21 05:23:14;;;;;;;7.18;4.82;;;;;;;;;;4995041;28;20929;-86
2021/08/21 05:25:45;;;;;;;6.90;5.25;;;;;;;;;;4994985;28;20495;-86
2021/08/21 05:28:12;;;;;;;7.93;5.15;;;;;;;;;;4996001;28;20769;-86
2021/08/21 05:30:39;;;;;;;6.63;5.15;;;;;;;;;;4987697;28;20417;-86
2021/08/21 05:33:09;;;;;;;6.47;5.55;;;;;;;;;;4983468;28;20412;-85
2021/08/21 05:35:36;;;;;;;9.63;5.45;;;;;;;;;;4982822;28;20404;-84
2021/08/21 05:38:03;;;;;;;6.72;5.20;;;;;;;;;;4985013;28;20409;-84
2021/08/21 05:40:31;;;;;;;8.03;5.37;;;;;;;;;;4983311;28;20428;-84
2021/08/21 05:42:59;;;;;;;10.27;5.97;;;;;;;;;;4984515;28;20405;-85
2021/08/21 05:45:27;;;;;;;6.50;5.47;;;;;;;;;;4982702;28;20912;-86
2021/08/21 05:47:54;;;;;;;9.65;5.75;;;;;;;;;;4983270;28;20781;-85
2021/08/21 05:50:22;;;;;;;7.45;5.18;;;;;;;;;;4984832;28;20407;-86
2021/08/21 05:52:50;;;;;;;8.18;5.63;;;;;;;;;;4984868;28;20838;-86
2021/08/21 05:55:17;;;;;;;7.43;5.28;;;;;;;;;;4982785;28;20414;-86
2021/08/21 05:57:44;;;;;;;6.25;4.95;;;;;;;;;;4986224;28;20411;-86
2021/08/21 06:00:13;;;;;;;6.57;4.80;;;;;;;;;;4985157;28;20420;-86
2021/08/21 06:02:41;;;;;;;6.88;4.80;;;;;;;;;;4987459;28;20419;-87
2021/08/21 06:05:10;;;;;;;6.75;4.32;;;;;;;;;;4988257;28;20413;-86
2021/08/21 06:07:37;;;;;;;7.55;4.97;;;;;;;;;;4990054;28;20885;-86
2021/08/21 06:10:06;;;;;;;6.25;4.32;;;;;;;;;;4989200;28;20739;-85
2021/08/21 06:12:33;;;;;;;5.47;4.20;;;;;;;;;;4993444;28;20409;-86
2021/08/21 06:15:00;;;;;;;5.33;4.57;;;;;;;;;;4988731;28;20435;-86
2021/08/21 06:17:28;;;;;;;6.00;4.57;;;;;;;;;;4988329;28;20428;-86
2021/08/21 06:19:57;;;;;;;7.13;4.38;;;;;;;;;;4994481;28;20416;-86
2021/08/21 06:22:24;;;;;;;7.27;4.57;;;;;;;;;;4991397;28;20459;-85
2021/08/21 06:24:51;;;;;;;6.13;4.73;;;;;;;;;;4986039;28;20468;-79
2021/08/21 06:27:18;;;;;;;6.57;4.70;;;;;;;;;;4989766;28;20409;-80
2021/08/21 06:29:45;;;;;;;5.53;4.30;;;;;;;;;;4993525;28;20399;-79
2021/08/21 06:32:12;;;;;;;6.38;4.50;;;;;;;;;;4988501;28;20414;-79
2021/08/21 06:34:40;;;;;;;6.78;4.72;;;;;;;;;;4988528;28;20415;-81
2021/08/21 06:37:08;;;;;;;6.45;4.53;;;;;;;;;;4991861;28;20435;-82
2021/08/21 06:39:35;;;;;;;6.80;4.38;;;;;;;;;;4995024;28;20412;-81
2021/08/21 06:42:02;;;;;;;6.68;4.38;;;;;;;;;;4985372;28;21002;-84
2021/08/21 06:44:29;;;;;;;5.47;4.45;;;;;;;;;;4991033;28;20403;-80
2021/08/21 06:46:56;;;;;;;5.83;4.40;;;;;;;;;;4989134;28;20904;-79
2021/08/21 06:49:23;;;;;;;7.25;4.50;;;;;;;;;;4983196;28;20408;-87
2021/08/21 06:51:51;;;;;;;5.35;4.28;;;;;;;;;;4983221;28;20404;-87
2021/08/21 06:54:18;;;;;;;9.00;4.35;;;;;;;;;;5001119;28;20781;-90
2021/08/21 06:56:45;;;;;;;4.93;4.00;;;;;;;;;;4985273;28;20416;-90
2021/08/21 06:59:12;;;;;;;4.90;3.97;;;;;;;;;;4984708;28;20421;-90
2021/08/21 07:01:39;;;;;;;4.28;3.80;;;;;;;;;;4984940;28;20439;-90
2021/08/21 07:04:06;;;;;;;4.85;4.00;;;;;;;;;;4997202;28;20657;-90
2021/08/21 07:06:33;;;;;;;5.07;4.22;;;;;;;;;;4991531;28;20404;-91
2021/08/21 07:09:01;;;;;;;5.07;4.38;;;;;;;;;;4989479;28;20407;-91
2021/08/21 07:11:28;;;;;;;6.05;4.55;;;;;;;;;;4995243;28;20413;-91
2021/08/21 07:13:55;;;;;;;5.78;4.47;;;;;;;;;;4993303;28;20914;-90
2021/08/21 07:16:22;;;;;;;7.00;4.65;;;;;;;;;;4992024;28;20413;-90
2021/08/21 07:18:49;;;;;;;6.30;4.45;;;;;;;;;;4985432;28;20413;-91
2021/08/21 07:21:16;;;;;;;6.22;4.05;;;;;;;;;;4996225;28;20423;-91
2021/08/21 07:23:44;;;;;;;5.13;4.25;;;;;;;;;;4988946;28;20552;-91
2021/08/21 07:26:12;;;;;;;4.88;4.05;;;;;;;;;;4985504;28;20408;-90
2021/08/21 07:28:39;;;;;;;4.63;4.20;;;;;;;;;;4996560;28;20411;-90
2021/08/21 07:31:06;;;;;;;4.40;3.90;;;;;;;;;;4985035;28;20409;-91
2021/08/21 07:33:33;;;;;;;6.75;4.18;;;;;;;;;;4997879;28;20769;-91
2021/08/21 07:36:00;;;;;;;5.20;3.90;;;;;;;;;;4997370;28;20469;-91
2021/08/21 07:38:26;;;;;;;4.07;3.60;;;;;;;;;;4997601;28;20433;-90
2021/08/21 07:40:53;;;;;;;4.23;3.83;;;;;;;;;;4984348;28;20536;-91
2021/08/21 07:43:22;;;;;;;5.57;3.73;;;;;;;;;;4990878;28;20764;-91
2021/08/21 07:45:48;;;;;;;4.50;3.97;;;;;;;;;;4997126;28;20898;-91
2021/08/21 07:48:16;;;;;;;7.10;4.13;;;;;;;;;;4984923;28;20412;-91
2021/08/21 07:50:43;;;;;;;6.63;4.10;;;;;;;;;;4996557;28;20419;-91
2021/08/21 07:53:10;;;;;;;4.82;3.85;;;;;;;;;;4999547;28;20443;-91
2021/08/21 07:55:37;;;;;;;4.43;3.40;;;;;;;;;;4997394;28;20401;-91
2021/08/21 07:58:05;;;;;;;4.13;3.25;;;;;;;;;;4986297;28;20821;-91
2021/08/21 08:00:33;;;;;;;4.53;3.10;;;;;;;;;;4985250;28;20921;-91
2021/08/21 08:03:00;;;;;;;4.28;3.13;;;;;;;;;;4983713;28;20404;-91
2021/08/21 08:05:28;;;;;;;4.35;2.75;;;;;;;;;;4995569;28;20498;-90
2021/08/21 08:07:56;;;;;;;3.53;3.22;;;;;;;;;;4986048;28;20440;-90
2021/08/21 08:10:23;;;;;;;3.93;3.00;;;;;;;;;;4984415;28;20408;-91
2021/08/21 08:12:50;;;;;;;5.07;2.90;;;;;;;;;;4984143;28;20412;-90
2021/08/21 08:15:17;;;;;;;5.07;3.05;;;;;;;;;;4984935;28;20412;-91
2021/08/21 08:17:55;;;;;;;3.38;3.05;;;;;;;;;;4983758;28;20413;-90
2021/08/21 08:20:22;;;;;;;5.43;3.22;;;;;;;;;;4982384;28;20416;-89
2021/08/21 08:22:49;;;;;;;4.67;3.37;;;;;;;;;;4983286;28;20432;-91
2021/08/21 08:25:16;;;;;;;4.32;3.22;;;;;;;;;;4981270;28;20483;-91
2021/08/21 08:27:45;;;;;;;4.47;3.25;;;;;;;;;;4984165;28;20430;-91
2021/08/21 08:30:12;;;;;;;3.95;3.03;;;;;;;;;;4983511;28;20415;-90
2021/08/21 08:32:39;;;;;;;3.05;2.70;;;;;;;;;;4992142;28;20405;-91
2021/08/21 08:35:08;;;;;;;3.85;2.92;;;;;;;;;;4995606;28;20412;-89
2021/08/21 08:37:35;;;;;;;3.40;2.88;;;;;;;;;;4983976;28;20416;-91
2021/08/21 08:40:04;;;;;;;5.68;2.90;;;;;;;;;;4983040;28;20435;-90
2021/08/21 08:42:32;;;;;;;3.63;2.95;;;;;;;;;;4983838;28;20531;-89
2021/08/21 08:44:58;;;;;;;3.60;2.90;;;;;;;;;;4996769;28;20484;-91
2021/08/21 08:47:25;;;;;;;3.70;3.10;;;;;;;;;;4992287;28;20415;-90
2021/08/21 08:49:52;;;;;;;4.05;3.15;;;;;;;;;;4987162;28;20550;-90
2021/08/21 08:52:21;;;;;;;4.35;3.00;;;;;;;;;;4983680;28;20401;-89
2021/08/21 08:54:48;;;;;;;3.95;3.10;;;;;;;;;;4980198;28;20819;-91
2021/08/21 08:57:18;;;;;;;4.70;3.05;;;;;;;;;;4983693;28;20773;-89
2021/08/21 08:59:48;;;;;;;3.40;2.97;;;;;;;;;;4980233;28;20421;-89
2021/08/21 09:02:31;;;;;;;6.35;3.50;;;;;;;;;;4987303;28;20419;-90
2021/08/21 09:05:01;;;;;;;4.60;3.43;;;;;;;;;;4981616;28;20423;-91
2021/08/21 09:07:40;;;;;;;5.40;3.30;;;;;;;;;;4983131;28;20452;-91
2021/08/21 09:10:11;;;;;;;6.07;3.33;;;;;;;;;;4995372;28;20432;-90
2021/08/21 09:12:38;;;;;;;4.85;3.38;;;;;;;;;;4992145;28;20401;-90
2021/08/21 09:15:22;;;;;;;4.70;3.17;;;;;;;;;;4997650;28;20413;-89
2021/08/21 09:18:07;;;;;;;4.25;3.08;;;;;;;;;;4981086;28;20936;-90
2021/08/21 09:20:36;;;;;;;4.72;3.15;;;;;;;;;;4982587;28;21126;-90
2021/08/21 09:23:28;;;;;;;4.43;3.22;;;;;;;;;;4985017;28;20420;-90
2021/08/21 09:25:57;;;;;;;6.40;3.37;;;;;;;;;;4994907;28;20448;-90
2021/08/21 09:28:26;;;;;;;6.15;3.60;;;;;;;;;;4982933;28;20408;-90
2021/08/21 09:31:05;;;;;;;4.80;3.47;;;;;;;;;;4982547;28;20412;-91
2021/08/21 09:33:32;;;;;;;4.30;3.60;;;;;;;;;;4983501;28;20424;-90
2021/08/21 09:36:00;;;;;;;4.65;3.35;;;;;;;;;;4983118;28;20416;-92
2021/08/21 09:38:30;;;;;;;3.50;3.20;;;;;;;;;;4996581;28;20414;-92
2021/08/21 09:41:03;;;;;;;3.45;3.10;;;;;;;;;;4997960;28;20430;-91
2021/08/21 09:43:32;;;;;;;4.23;3.33;;;;;;;;;;4998487;28;20438;-91
2021/08/21 09:46:11;;;;;;;4.05;3.30;;;;;;;;;;4998505;28;20427;-90
2021/08/21 09:49:00;;;;;;;3.30;3.00;;;;;;;;;;4999696;28;20926;-90
2021/08/21 09:51:39;;;;;;;4.97;3.30;;;;;;;;;;4999112;28;20566;-90
2021/08/21 09:54:08;;;;;;;4.23;3.10;;;;;;;;;;4997897;28;20416;-91
2021/08/21 09:56:37;;;;;;;7.25;3.22;;;;;;;;;;4998620;28;20424;-90
2021/08/21 09:59:05;;;;;;;5.15;3.40;;;;;;;;;;4997016;28;20407;-90
2021/08/21 10:01:33;;;;;;;4.47;3.30;;;;;;;;;;4982659;28;20425;-90
2021/08/21 10:04:01;;;;;;;4.50;3.17;;;;;;;;;;4982344;28;20431;-90
2021/08/21 10:06:28;;;;;;;3.70;3.27;;;;;;;;;;4987233;28;20788;-90
2021/08/21 10:08:59;;;;;;;4.38;3.47;;;;;;;;;;4987824;28;21348;-91
2021/08/21 10:11:29;;;;;;;4.32;3.17;;;;;;;;;;4983579;28;20443;-90
2021/08/21 10:13:58;;;;;;;4.15;3.40;;;;;;;;;;4986441;28;21004;-90
2021/08/21 10:16:29;;;;;;;3.75;3.15;;;;;;;;;;4988925;28;20451;-90
2021/08/21 10:18:57;;;;;;;4.78;3.38;;;;;;;;;;4982112;28;20424;-90
2021/08/21 10:21:24;;;;;;;5.82;3.28;;;;;;;;;;4982934;28;20893;-91
2021/08/21 10:23:53;;;;;;;5.35;3.10;;;;;;;;;;4982587;28;20401;-91
2021/08/21 10:26:26;;;;;;;4.05;3.20;;;;;;;;;;4982768;28;20413;-91
2021/08/21 10:28:56;;;;;;;5.15;3.22;;;;;;;;;;4991645;28;20418;-91
2021/08/21 10:31:49;;;;;;;4.72;3.40;;;;;;;;;;4999027;28;20485;-92
2021/08/21 10:34:17;;;;;;;3.78;2.78;;;;;;;;;;4947198;28;20418;-90
2021/08/21 10:36:48;;;;;;;3.90;3.30;;;;;;;;;;4986316;28;20412;-92
2021/08/21 10:39:17;;;;;;;5.25;3.13;;;;;;;;;;4999097;28;20426;-91
2021/08/21 10:41:44;;;;;;;5.20;3.00;;;;;;;;;;4989797;28;20413;-91
2021/08/21 10:44:33;;;;;;;6.10;2.90;;;;;;;;;;4992866;28;20413;-91
2021/08/21 10:46:59;;;;;;;3.50;2.80;;;;;;;;;;4981850;28;20412;-91
2021/08/21 10:49:47;;;;;;;4.80;2.97;;;;;;;;;;4982598;28;20738;-91
2021/08/21 10:52:49;;;;;;;4.07;2.78;;;;;;;;;;4999144;28;20840;-92
2021/08/21 10:55:19;;;;;;;5.80;2.70;;;;;;;;;;4979061;28;20417;-90
2021/08/21 10:58:08;;;;;;;5.32;3.00;;;;;;;;;;4982397;28;20403;-89
2021/08/21 11:00:58;;;;;;;4.65;3.13;;;;;;;;;;4976048;28;20441;-90
2021/08/21 11:03:50;;;;;;;5.00;2.95;;;;;;;;;;4980250;28;20475;-91
2021/08/21 11:06:28;;;;;;;4.90;3.00;;;;;;;;;;4979722;28;20419;-90
2021/08/21 11:08:58;;;;;;;4.57;3.00;;;;;;;;;;4980566;28;20417;-91
2021/08/21 11:11:29;;;;;;;6.13;3.03;;;;;;;;;;4983381;28;20408;-92
2021/08/21 11:14:00;;;;;;;4.13;3.08;;;;;;;;;;4995908;28;20530;-91
2021/08/21 11:16:46;;;;;;;4.80;3.20;;;;;;;;;;5002768;28;20415;-91
2021/08/21 11:19:16;;;;;;;6.15;3.17;;;;;;;;;;4981957;28;20762;-91
2021/08/21 11:21:43;;;;;;;4.20;3.10;;;;;;;;;;5002327;28;20480;-91
2021/08/21 11:24:26;;;;;;;3.63;3.00;;;;;;;;;;4989979;28;20413;-92
2021/08/21 11:27:33;;;;;;;4.47;3.05;;;;;;;;;;4985354;28;20400;-92
2021/08/21 11:30:27;;;;;;;3.55;2.80;;;;;;;;;;4989390;28;20401;-91
2021/08/21 11:33:00;;;;;;;5.40;3.03;;;;;;;;;;4971505;28;20420;-92
2021/08/21 11:35:35;;;;;;;4.00;2.80;;;;;;;;;;5000534;28;20414;-92
2021/08/21 11:38:03;;;;;;;3.17;2.75;;;;;;;;;;5002217;28;20822;-92
2021/08/21 11:40:37;;;;;;;4.10;2.80;;;;;;;;;;5001980;28;20418;-91
2021/08/21 11:43:05;;;;;;;3.45;2.85;;;;;;;;;;5001960;28;20429;-91
2021/08/21 11:45:33;;;;;;;3.80;2.83;;;;;;;;;;5003114;28;20434;-92
2021/08/21 11:48:01;;;;;;;4.03;2.95;;;;;;;;;;4995378;28;20411;-92
2021/08/21 11:50:31;;;;;;;4.07;3.00;;;;;;;;;;4998604;28;20515;-92
2021/08/21 11:53:03;;;;;;;5.32;3.40;;;;;;;;;;4985088;28;20413;-92
2021/08/21 11:55:32;;;;;;;5.20;3.20;;;;;;;;;;4985511;28;20792;-91
2021/08/21 11:58:01;;;;;;;5.25;3.10;;;;;;;;;;4985036;28;20420;-92
2021/08/21 12:00:30;;;;;;;5.60;3.00;;;;;;;;;;4985562;28;20444;-92
2021/08/21 12:03:01;;;;;;;5.25;2.90;;;;;;;;;;4985402;28;20654;-91
2021/08/21 12:05:34;;;;;;;4.63;3.08;;;;;;;;;;5002314;28;20465;-91
2021/08/21 12:08:18;;;;;;;4.07;2.87;;;;;;;;;;4996458;28;20417;-91
2021/08/21 12:10:47;;;;;;;4.63;3.10;;;;;;;;;;5003662;28;20482;-91
2021/08/21 12:13:15;;;;;;;5.53;3.10;;;;;;;;;;4991114;28;20403;-91
2021/08/21 12:15:43;;;;;;;4.72;3.08;;;;;;;;;;5004066;28;20403;-91
2021/08/21 12:18:10;;;;;;;5.80;2.85;;;;;;;;;;4994548;28;20900;-90
2021/08/21 12:20:39;;;;;;;4.68;3.08;;;;;;;;;;5013616;28;20401;-89
2021/08/21 12:23:08;;;;;;;5.30;2.95;;;;;;;;;;5022823;28;20411;-90
2021/08/21 12:25:53;;;;;;;5.10;3.08;;;;;;;;;;5025274;28;20417;-91
2021/08/21 12:28:21;;;;;;;3.42;2.85;;;;;;;;;;5001470;28;20411;-92
2021/08/21 12:31:00;;;;;;;5.05;2.90;;;;;;;;;;4981619;28;20411;-91
2021/08/21 12:33:32;;;;;;;5.35;3.10;;;;;;;;;;4987518;28;20772;-93
2021/08/21 12:36:16;;;;;;;6.85;3.10;;;;;;;;;;5002087;28;20415;-90
2021/08/21 12:38:59;;;;;;;5.68;3.17;;;;;;;;;;5002051;28;20398;-92
2021/08/21 12:41:27;;;;;;;5.63;3.20;;;;;;;;;;5001749;28;20407;-92
2021/08/21 12:44:06;;;;;;;4.30;3.03;;;;;;;;;;5001215;28;20430;-92
2021/08/21 12:46:35;;;;;;;5.03;3.08;;;;;;;;;;4997356;28;20415;-91
2021/08/21 12:49:06;;;;;;;3.95;3.17;;;;;;;;;;4999873;28;20426;-91
2021/08/21 12:51:40;;;;;;;4.15;2.92;;;;;;;;;;4983667;28;20421;-93
2021/08/21 12:54:09;;;;;;;4.13;3.17;;;;;;;;;;4983947;28;20504;-92
2021/08/21 12:56:36;;;;;;;5.57;3.22;;;;;;;;;;4983890;28;20413;-93
2021/08/21 12:59:13;;;;;;;3.75;3.05;;;;;;;;;;4983539;28;20400;-91
2021/08/21 13:01:41;;;;;;;4.68;3.03;;;;;;;;;;4986818;28;20428;-92
2021/08/21 13:04:09;;;;;;;3.92;3.10;;;;;;;;;;4987895;28;20428;-91
2021/08/21 13:06:41;;;;;;;6.07;3.03;;;;;;;;;;4983329;28;20415;-91
2021/08/21 13:09:12;;;;;;;5.05;3.08;;;;;;;;;;4985994;28;20417;-92
2021/08/21 13:11:42;;;;;;;6.10;3.10;;;;;;;;;;5001527;28;20475;-90
2021/08/21 13:14:09;;;;;;;5.43;3.33;;;;;;;;;;4993672;28;20413;-91
2021/08/21 13:16:36;;;;;;;6.10;3.08;;;;;;;;;;4996033;28;20427;-91
2021/08/21 13:19:03;;;;;;;4.07;3.13;;;;;;;;;;4983217;28;20416;-91
2021/08/21 13:21:32;;;;;;;3.83;3.03;;;;;;;;;;4983606;28;20789;-92
2021/08/21 13:24:01;;;;;;;5.03;3.17;;;;;;;;;;4983532;28;20825;-92
2021/08/21 13:26:28;;;;;;;4.55;3.20;;;;;;;;;;5000133;28;20415;-89
2021/08/21 13:28:55;;;;;;;4.50;3.15;;;;;;;;;;5001061;28;20417;-90
2021/08/21 13:31:21;;;;;;;5.65;3.50;;;;;;;;;;4990831;28;20451;-90
2021/08/21 13:33:48;;;;;;;5.50;3.03;;;;;;;;;;4982991;28;20417;-91
2021/08/21 13:36:15;;;;;;;4.10;3.40;;;;;;;;;;5001450;28;20410;-91
2021/08/21 13:38:42;;;;;;;4.68;3.08;;;;;;;;;;4998924;28;20900;-91
2021/08/21 13:41:11;;;;;;;4.55;3.33;;;;;;;;;;4982518;28;20413;-92
2021/08/21 13:43:37;;;;;;;4.90;3.30;;;;;;;;;;4983583;28;20505;-92
2021/08/21 13:46:04;;;;;;;6.78;3.20;;;;;;;;;;4983168;28;20412;-92
2021/08/21 13:48:31;;;;;;;5.43;3.23;;;;;;;;;;4991805;28;20403;-92
2021/08/21 13:50:58;;;;;;;5.78;3.17;;;;;;;;;;4990131;28;20423;-92
2021/08/21 13:53:25;;;;;;;3.58;3.00;;;;;;;;;;5001936;28;20410;-93
2021/08/21 13:55:52;;;;;;;5.63;3.17;;;;;;;;;;5001875;28;20419;-92
2021/08/21 13:58:20;;;;;;;3.92;3.00;;;;;;;;;;4983581;28;20407;-93
2021/08/21 14:00:47;;;;;;;4.55;3.00;;;;;;;;;;4979408;28;20897;-92
2021/08/21 14:03:14;;;;;;;4.82;3.17;;;;;;;;;;5001517;28;20748;-92
2021/08/21 14:05:42;;;;;;;5.50;3.28;;;;;;;;;;4991283;28;20781;-92
2021/08/21 14:08:09;;;;;;;5.38;3.40;;;;;;;;;;4988849;28;20947;-93
2021/08/21 14:10:36;;;;;;;5.20;3.40;;;;;;;;;;4995863;28;20423;-92
2021/08/21 14:13:03;;;;;;;5.80;3.35;;;;;;;;;;4982791;28;20782;-93
2021/08/21 14:15:32;;;;;;;5.93;3.30;;;;;;;;;;4988313;28;20411;-92
2021/08/21 14:17:59;;;;;;;5.90;3.10;;;;;;;;;;5001432;28;20437;-93
2021/08/21 14:20:29;;;;;;;5.55;3.50;;;;;;;;;;5001723;28;20415;-93
2021/08/21 14:22:59;;;;;;;7.25;3.40;;;;;;;;;;4996898;28;20420;-92
2021/08/21 14:25:26;;;;;;;4.55;3.10;;;;;;;;;;4983385;28;20419;-92
2021/08/21 14:27:53;;;;;;;3.50;3.20;;;;;;;;;;5001487;28;20665;-93
2021/08/21 14:30:28;;;;;;;5.03;3.30;;;;;;;;;;4986631;28;20416;-92
2021/08/21 14:32:59;;;;;;;4.53;3.33;;;;;;;;;;4983631;28;20839;-93
2021/08/21 14:35:26;;;;;;;3.85;3.17;;;;;;;;;;4982864;28;20404;-91
2021/08/21 14:37:53;;;;;;;7.43;3.28;;;;;;;;;;4982397;28;20413;-91
2021/08/21 14:40:20;;;;;;;3.80;3.05;;;;;;;;;;4986401;28;20424;-92
2021/08/21 14:42:47;;;;;;;5.38;2.85;;;;;;;;;;4979581;28;20427;-92
2021/08/21 14:45:14;;;;;;;5.45;3.40;;;;;;;;;;4993825;28;20413;-92
2021/08/21 14:47:41;;;;;;;3.53;3.20;;;;;;;;;;5005517;28;20899;-92
2021/08/21 14:50:18;;;;;;;4.82;3.00;;;;;;;;;;5005808;28;20496;-93
2021/08/21 14:52:46;;;;;;;4.38;3.05;;;;;;;;;;4986119;28;20417;-91
2021/08/21 14:55:13;;;;;;;6.82;3.10;;;;;;;;;;4986987;28;20415;-91